»·PEaware :: FFT2164 KLAX-KLAS

FFT2164 :: KLAX-KLAS

FLIGHT INFORMATION

Flight Status: Arrived
Operator:
Frontier Airlines
More flights by this operator :: More flights under this callsign
Pilot: Luc P. (3613)
Aircraft: Unknown
(A32N)
More flights by this aircraft type
Origin: KLAX Los Angeles Intl
United States
Destination: KLAS McCarran Intl
United States
More flights between these airports :: More routes between these airports
Route: +ORCKA5 MISEN KEPEC6
File this flight plan on PilotEdge
Remarks: PBN / A1B1C1D1O1S1 DOF / 201012 REG / N307FR OPR / FFT PER / C RMK / TCAS)
Altitude:
(Current/Filed)
26,000ft
Speed:
(Current/Filed)
401kts
Departed: 12-Oct-20 10:14 AM
Arrived: 12-Oct-20 11:06 AM
Distance/Time
Traveled:
206nm/0:52
Distance/Time
To Go:
Arrived

Flight Plot

Page will automatically refresh every two minutes.

Flight plan parsing failed; only flown route is shown


Map Options




Map Legend


Flown Route
Filed Route
Departure Airport
Arrival Airport
Navaid (VOR, NDB)
Fix

Horizontal Profiles

Position Reports

Time Latitude Longitude Heading Altitude Ground
Speed
12-Oct-20 09:52 33.941502 -118.405136 83 125ft 0kts
12-Oct-20 09:53 33.941502 -118.405136 83 125ft 0kts
12-Oct-20 09:54 33.941502 -118.405136 83 125ft 0kts
12-Oct-20 09:55 33.941502 -118.405136 83 125ft 0kts
12-Oct-20 09:56 33.941502 -118.405136 83 125ft 0kts
12-Oct-20 09:57 33.941502 -118.405136 83 125ft 0kts
12-Oct-20 09:58 33.941502 -118.405136 83 125ft 0kts
12-Oct-20 09:59 33.941502 -118.405136 83 125ft 0kts
12-Oct-20 10:00 33.941502 -118.405136 83 125ft 0kts
12-Oct-20 10:01 33.941502 -118.405136 83 125ft 0kts
12-Oct-20 10:02 33.941502 -118.405136 83 125ft 0kts
12-Oct-20 10:03 33.941435 -118.405850 83 125ft 0kts
12-Oct-20 10:04 33.941435 -118.405850 83 125ft 0kts
12-Oct-20 10:05 33.941436 -118.405810 89 125ft 1kts
12-Oct-20 10:06 33.940653 -118.405582 172 125ft 4kts
12-Oct-20 10:07 33.939442 -118.405382 161 125ft 9kts
12-Oct-20 10:08 33.939477 -118.401372 83 125ft 15kts
12-Oct-20 10:09 33.939049 -118.397215 83 125ft 11kts
12-Oct-20 10:10 33.939583 -118.392196 82 125ft 18kts
12-Oct-20 10:11 33.940273 -118.385408 83 125ft 23kts
12-Oct-20 10:12 33.940785 -118.380500 80 125ft 6kts
12-Oct-20 10:14 33.939479 -118.383937 262 125ft 84kts
12-Oct-20 10:15 33.934698 -118.437181 263 3058ft 187kts
12-Oct-20 10:16 33.912820 -118.512753 247 4819ft 273kts
12-Oct-20 10:17 33.885499 -118.597721 248 4985ft 272kts
12-Oct-20 10:18 33.840212 -118.664730 189 5491ft 278kts
12-Oct-20 10:19 33.779142 -118.621768 112 9640ft 290kts
12-Oct-20 10:20 33.803334 -118.539369 35 11303ft 291kts
12-Oct-20 10:21 33.876416 -118.463615 38 13690ft 373kts
12-Oct-20 10:22 33.961217 -118.410816 35 16927ft 387kts
12-Oct-20 10:23 34.007247 -118.322620 64 19024ft 406kts
12-Oct-20 10:24 34.024111 -118.282466 59 19039ft 410kts
12-Oct-20 10:25 34.033354 -118.262962 58 19041ft 408kts
12-Oct-20 10:26 34.044175 -118.241259 57 19043ft 408kts
12-Oct-20 10:27 34.071061 -118.190295 55 19044ft 408kts
12-Oct-20 10:28 34.101560 -118.135059 54 19288ft 404kts
12-Oct-20 10:29 34.137157 -118.071822 54 20734ft 408kts
12-Oct-20 10:30 34.188103 -117.981449 54 22584ft 418kts
12-Oct-20 10:30 34.243272 -117.883395 53 23929ft 434kts
12-Oct-20 10:32 34.322829 -117.741377 53 25017ft 445kts
12-Oct-20 10:32 34.382394 -117.639672 51 25061ft 444kts
12-Oct-20 10:34 34.466780 -117.497952 52 25072ft 446kts
12-Oct-20 10:34 34.527273 -117.396065 52 25074ft 446kts
12-Oct-20 10:36 34.612014 -117.252850 52 25076ft 447kts
12-Oct-20 10:36 34.672091 -117.150964 52 25080ft 431kts
12-Oct-20 10:37 34.737199 -117.040141 51 25087ft 402kts
12-Oct-20 10:38 34.802197 -116.929362 51 25093ft 402kts
12-Oct-20 10:39 34.866712 -116.818984 51 25088ft 401kts
12-Oct-20 10:40 34.930983 -116.707667 52 25087ft 401kts
12-Oct-20 10:41 34.994273 -116.595990 52 24980ft 401kts
12-Oct-20 10:42 35.057322 -116.484116 52 24456ft 398kts
12-Oct-20 10:43 35.125682 -116.380263 43 24090ft 393kts
12-Oct-20 10:44 35.200914 -116.284035 43 22415ft 387kts
12-Oct-20 10:45 35.273398 -116.191916 43 20455ft 378kts
12-Oct-20 10:46 35.345215 -116.100744 44 18468ft 367kts
12-Oct-20 10:47 35.415280 -116.011782 44 16462ft 357kts
12-Oct-20 10:48 35.483587 -115.924942 45 14915ft 350kts
12-Oct-20 10:49 35.550431 -115.839849 45 13609ft 345kts
12-Oct-20 10:50 35.616530 -115.755517 45 13017ft 342kts
12-Oct-20 10:51 35.682538 -115.671216 45 13008ft 343kts
12-Oct-20 10:52 35.755382 -115.596340 30 12760ft 343kts
12-Oct-20 10:53 35.835746 -115.534901 32 11760ft 336kts
12-Oct-20 10:54 35.905210 -115.478945 33 11035ft 283kts
12-Oct-20 10:55 35.970763 -115.425199 33 11011ft 282kts
12-Oct-20 10:56 36.033231 -115.366285 57 10603ft 287kts
12-Oct-20 10:57 36.029924 -115.275687 108 9114ft 273kts
12-Oct-20 10:58 36.017478 -115.186402 94 7878ft 261kts
12-Oct-20 10:59 36.012580 -115.098546 89 5705ft 253kts
12-Oct-20 11:00 36.012047 -115.024715 78 4598ft 193kts
12-Oct-20 11:01 36.052160 -115.001469 343 3817ft 169kts
12-Oct-20 11:02 36.074848 -115.046498 262 3195ft 144kts
12-Oct-20 11:03 36.073744 -115.096282 268 2567ft 143kts
12-Oct-20 11:04 36.073663 -115.140827 270 2104ft 56kts
12-Oct-20 11:05 36.074768 -115.146012 300 2125ft 0kts
12-Oct-20 11:06 36.077256 -115.146540 9 2131ft 15kts
12-Oct-20 11:07 36.077550 -115.142544 92 2115ft 13kts
12-Oct-20 11:08 36.080221 -115.141596 359 2105ft 11kts
12-Oct-20 11:09 36.083433 -115.140940 46 2090ft 10kts
12-Oct-20 11:10 36.084149 -115.137611 88 2079ft 7kts
12-Oct-20 11:11 36.084158 -115.136812 89 2078ft 1kts
12-Oct-20 11:12 36.083717 -115.136345 162 2079ft 4kts
12-Oct-20 11:13 36.083400 -115.136211 160 2080ft 0kts
12-Oct-20 11:14 36.083400 -115.136211 160 2080ft 0kts
12-Oct-20 11:15 36.083400 -115.136211 160 2080ft 0kts
12-Oct-20 11:16 36.083400 -115.136211 160 2080ft 0kts

Navigation Log

Ident Type
Flight plan parsing failed, navigation log unavailable